Hlavní strana
METAR-TAF:

METAR-TAF

Letiště :

Aigen im Ennstal, Rakousko

zeměpisná šířka: 47-32N, zeměpisná délka: 014-08E, výška: 638 m

METAR: chybějící

Čas: 21:09 (20:09 UTC)

Předpověď počasí

Zpráva byla vytvořena před 5 hodinami a 54 minutami, v 14:15 UTC
Předpověď platná od 11 v 15 UTC do 11 v 24 UTC
Jihozápadní vítr 10 kt
Viditelnost: 7000 m
Polojasno ve výšce 1500 ft
Oblačno až skoro zataženo ve výšce 3000 ft
slabé sněžení
Dočasný
od 11 v 15 UTC do 11 v 24 UTC
Západojihozápadní vítr 15 kt s nárazy do 25 kt
Viditelnost: 1400 m
Polojasno ve výšce 500 ft
Zataženo ve výšce 2000 ft
sněhové přeháňky
Dočasný
od 11 v 19 UTC do 11 v 24 UTC
Viditelnost: 0700 m
Polojasno ve výšce 300 ft
Zataženo ve výšce 1000 ft
sníh

TAF: LOXA 111415Z 1115/1124 22010KT 7000 -SN SCT015 BKN030 TEMPO 1115/1124 24015G25KT 1400 SHSN SCT005 OVC020 TEMPO 1119/1124 0700 SN SCT003 OVC010

Stav a předpovědi počasí z více než 4 000 letišť (zprávy METAR a TAF).

Červené a žluté tečky na mapě představují dostupné meteorologické stanice.

Když kurzor umístíte na tečku, zobrazí se název stanice.

Pak kliknutím zobrazíte stav a předpověď počasí.

Chcete-li změnit mapu, kliknutím na zelené tlačítko se znaménkem +mapu přiblížíte, kliknutím na zelené tlačítko se znaménkem – mapu oddálíte a kliknutím na zelené šipky přejdete na sousední mapy.


METAR-TAF: